sensor_id;sensor_type;location;lat;lon;timestamp;temperature;humidity
429;DHT22;201;48.758;9.290;2023-04-03T00:01:31;3.50;1.00
429;DHT22;201;48.758;9.290;2023-04-03T00:03:57;3.50;1.00
429;DHT22;201;48.758;9.290;2023-04-03T00:06:23;3.40;1.00
429;DHT22;201;48.758;9.290;2023-04-03T00:08:49;3.40;1.00
429;DHT22;201;48.758;9.290;2023-04-03T00:11:15;3.40;1.00
429;DHT22;201;48.758;9.290;2023-04-03T00:13:41;3.40;1.00
429;DHT22;201;48.758;9.290;2023-04-03T00:16:08;3.50;1.00
429;DHT22;201;48.758;9.290;2023-04-03T00:18:34;3.50;1.00
429;DHT22;201;48.758;9.290;2023-04-03T00:21:00;3.50;1.00
429;DHT22;201;48.758;9.290;2023-04-03T00:23:25;3.50;1.00
429;DHT22;201;48.758;9.290;2023-04-03T00:25:52;3.40;1.00
429;DHT22;201;48.758;9.290;2023-04-03T00:28:18;3.40;1.00
429;DHT22;201;48.758;9.290;2023-04-03T00:30:43;3.50;1.00
429;DHT22;201;48.758;9.290;2023-04-03T00:33:12;3.40;1.00
429;DHT22;201;48.758;9.290;2023-04-03T00:35:38;3.30;1.00
429;DHT22;201;48.758;9.290;2023-04-03T00:38:03;3.30;1.00
429;DHT22;201;48.758;9.290;2023-04-03T00:40:34;3.40;1.00
429;DHT22;201;48.758;9.290;2023-04-03T00:42:59;3.30;1.00
429;DHT22;201;48.758;9.290;2023-04-03T00:47:57;3.40;1.00
429;DHT22;201;48.758;9.290;2023-04-03T00:50:26;3.40;1.00
429;DHT22;201;48.758;9.290;2023-04-03T00:52:52;3.50;1.00
429;DHT22;201;48.758;9.290;2023-04-03T00:55:17;3.40;1.00
429;DHT22;201;48.758;9.290;2023-04-03T00:57:44;3.40;1.00
429;DHT22;201;48.758;9.290;2023-04-03T01:00:13;3.40;1.00
429;DHT22;201;48.758;9.290;2023-04-03T01:02:39;3.40;1.00
429;DHT22;201;48.758;9.290;2023-04-03T01:05:08;3.40;1.00
429;DHT22;201;48.758;9.290;2023-04-03T01:07:34;3.40;1.00
429;DHT22;201;48.758;9.290;2023-04-03T01:10:05;3.40;1.00
429;DHT22;201;48.758;9.290;2023-04-03T01:12:34;3.40;1.00
429;DHT22;201;48.758;9.290;2023-04-03T01:15:22;3.40;1.00
429;DHT22;201;48.758;9.290;2023-04-03T01:17:52;3.40;1.00
429;DHT22;201;48.758;9.290;2023-04-03T01:25:36;3.40;1.00
429;DHT22;201;48.758;9.290;2023-04-03T01:28:03;3.40;1.00
429;DHT22;201;48.758;9.290;2023-04-03T01:30:34;3.40;1.00
429;DHT22;201;48.758;9.290;2023-04-03T01:33:01;3.50;1.00
429;DHT22;201;48.758;9.290;2023-04-03T01:35:26;3.40;1.00
429;DHT22;201;48.758;9.290;2023-04-03T01:37:52;3.40;1.00
429;DHT22;201;48.758;9.290;2023-04-03T01:40:18;3.30;1.00
429;DHT22;201;48.758;9.290;2023-04-03T01:42:43;3.30;1.00
429;DHT22;201;48.758;9.290;2023-04-03T01:45:09;3.30;1.00
429;DHT22;201;48.758;9.290;2023-04-03T01:47:35;3.30;1.00
429;DHT22;201;48.758;9.290;2023-04-03T01:50:00;3.40;1.00
429;DHT22;201;48.758;9.290;2023-04-03T01:52:26;3.40;1.00
429;DHT22;201;48.758;9.290;2023-04-03T01:54:51;3.40;1.00
429;DHT22;201;48.758;9.290;2023-04-03T01:57:17;3.40;1.00
429;DHT22;201;48.758;9.290;2023-04-03T01:59:43;3.30;1.00
429;DHT22;201;48.758;9.290;2023-04-03T02:02:09;3.30;1.00
429;DHT22;201;48.758;9.290;2023-04-03T02:04:34;3.20;1.00
429;DHT22;201;48.758;9.290;2023-04-03T02:07:00;3.20;1.00
429;DHT22;201;48.758;9.290;2023-04-03T02:09:26;3.20;1.00
429;DHT22;201;48.758;9.290;2023-04-03T02:11:52;3.20;1.00
429;DHT22;201;48.758;9.290;2023-04-03T02:14:18;3.20;1.00
429;DHT22;201;48.758;9.290;2023-04-03T02:16:43;3.30;1.00
429;DHT22;201;48.758;9.290;2023-04-03T02:19:09;3.30;1.00
429;DHT22;201;48.758;9.290;2023-04-03T02:21:34;3.30;1.00
429;DHT22;201;48.758;9.290;2023-04-03T02:24:00;3.40;1.00
429;DHT22;201;48.758;9.290;2023-04-03T02:26:25;3.40;1.00
429;DHT22;201;48.758;9.290;2023-04-03T02:28:51;3.40;1.00
429;DHT22;201;48.758;9.290;2023-04-03T02:31:17;3.40;1.00
429;DHT22;201;48.758;9.290;2023-04-03T02:33:43;3.40;1.00
429;DHT22;201;48.758;9.290;2023-04-03T02:36:09;3.30;1.00
429;DHT22;201;48.758;9.290;2023-04-03T02:38:35;3.30;1.00
429;DHT22;201;48.758;9.290;2023-04-03T02:41:02;3.30;1.00
429;DHT22;201;48.758;9.290;2023-04-03T02:43:28;3.40;1.00
429;DHT22;201;48.758;9.290;2023-04-03T02:45:54;3.30;1.00
429;DHT22;201;48.758;9.290;2023-04-03T02:48:19;3.40;1.00
429;DHT22;201;48.758;9.290;2023-04-03T02:50:45;3.30;1.00
429;DHT22;201;48.758;9.290;2023-04-03T02:53:10;3.40;1.00
429;DHT22;201;48.758;9.290;2023-04-03T02:55:36;3.40;1.00
429;DHT22;201;48.758;9.290;2023-04-03T02:58:01;3.40;1.00
429;DHT22;201;48.758;9.290;2023-04-03T03:00:27;3.40;1.00
429;DHT22;201;48.758;9.290;2023-04-03T03:02:53;3.40;1.00
429;DHT22;201;48.758;9.290;2023-04-03T03:05:18;3.40;1.00
429;DHT22;201;48.758;9.290;2023-04-03T03:07:44;3.40;1.00
429;DHT22;201;48.758;9.290;2023-04-03T03:10:09;3.40;1.00
429;DHT22;201;48.758;9.290;2023-04-03T03:12:35;3.40;1.00
429;DHT22;201;48.758;9.290;2023-04-03T03:15:00;3.40;1.00
429;DHT22;201;48.758;9.290;2023-04-03T03:17:26;3.40;1.00
429;DHT22;201;48.758;9.290;2023-04-03T03:19:51;3.40;1.00
429;DHT22;201;48.758;9.290;2023-04-03T03:22:18;3.40;1.00
429;DHT22;201;48.758;9.290;2023-04-03T03:24:43;3.40;1.00
429;DHT22;201;48.758;9.290;2023-04-03T03:27:09;3.40;1.00
429;DHT22;201;48.758;9.290;2023-04-03T03:29:35;3.40;1.00
429;DHT22;201;48.758;9.290;2023-04-03T03:32:01;3.40;1.00
429;DHT22;201;48.758;9.290;2023-04-03T03:34:26;3.40;1.00
429;DHT22;201;48.758;9.290;2023-04-03T03:36:52;3.40;1.00
429;DHT22;201;48.758;9.290;2023-04-03T03:39:17;3.40;1.00
429;DHT22;201;48.758;9.290;2023-04-03T03:41:43;3.40;1.00
429;DHT22;201;48.758;9.290;2023-04-03T03:44:08;3.40;1.00
429;DHT22;201;48.758;9.290;2023-04-03T03:46:34;3.30;1.00
429;DHT22;201;48.758;9.290;2023-04-03T03:48:59;3.30;1.00
429;DHT22;201;48.758;9.290;2023-04-03T03:51:25;3.30;1.00
429;DHT22;201;48.758;9.290;2023-04-03T03:53:51;3.30;1.00
429;DHT22;201;48.758;9.290;2023-04-03T03:56:16;3.30;1.00
429;DHT22;201;48.758;9.290;2023-04-03T03:58:42;3.30;1.00
429;DHT22;201;48.758;9.290;2023-04-03T04:01:07;3.30;1.00
429;DHT22;201;48.758;9.290;2023-04-03T04:03:33;3.30;1.00
429;DHT22;201;48.758;9.290;2023-04-03T04:05:59;3.30;1.00
429;DHT22;201;48.758;9.290;2023-04-03T04:08:25;3.30;1.00
429;DHT22;201;48.758;9.290;2023-04-03T04:10:51;3.40;1.00
429;DHT22;201;48.758;9.290;2023-04-03T04:13:16;3.40;1.00
429;DHT22;201;48.758;9.290;2023-04-03T04:15:42;3.40;1.00
429;DHT22;201;48.758;9.290;2023-04-03T04:18:08;3.40;1.00
429;DHT22;201;48.758;9.290;2023-04-03T04:20:34;3.40;1.00
429;DHT22;201;48.758;9.290;2023-04-03T04:22:59;3.50;1.00
429;DHT22;201;48.758;9.290;2023-04-03T04:25:25;3.50;1.00
429;DHT22;201;48.758;9.290;2023-04-03T04:27:50;3.40;1.00
429;DHT22;201;48.758;9.290;2023-04-03T04:30:16;3.40;1.00
429;DHT22;201;48.758;9.290;2023-04-03T04:32:41;3.40;1.00
429;DHT22;201;48.758;9.290;2023-04-03T04:35:07;3.40;1.00
429;DHT22;201;48.758;9.290;2023-04-03T04:37:33;3.40;1.00
429;DHT22;201;48.758;9.290;2023-04-03T04:39:59;3.40;1.00
429;DHT22;201;48.758;9.290;2023-04-03T04:42:24;3.40;1.00
429;DHT22;201;48.758;9.290;2023-04-03T04:44:50;3.40;1.00
429;DHT22;201;48.758;9.290;2023-04-03T04:47:16;3.30;1.00
429;DHT22;201;48.758;9.290;2023-04-03T04:49:42;3.40;1.00
429;DHT22;201;48.758;9.290;2023-04-03T04:52:07;3.40;1.00
429;DHT22;201;48.758;9.290;2023-04-03T04:54:33;3.40;1.00
429;DHT22;201;48.758;9.290;2023-04-03T04:56:58;3.40;1.00
429;DHT22;201;48.758;9.290;2023-04-03T04:59:24;3.40;1.00
429;DHT22;201;48.758;9.290;2023-04-03T05:01:49;3.50;1.00
429;DHT22;201;48.758;9.290;2023-04-03T05:04:16;3.50;1.00
429;DHT22;201;48.758;9.290;2023-04-03T05:06:42;3.50;1.00
429;DHT22;201;48.758;9.290;2023-04-03T05:09:08;3.50;1.00
429;DHT22;201;48.758;9.290;2023-04-03T05:11:35;3.50;1.00
429;DHT22;201;48.758;9.290;2023-04-03T05:14:00;3.50;1.00
429;DHT22;201;48.758;9.290;2023-04-03T05:16:26;3.50;1.00
429;DHT22;201;48.758;9.290;2023-04-03T05:18:51;3.50;1.00
429;DHT22;201;48.758;9.290;2023-04-03T05:21:17;3.60;1.00
429;DHT22;201;48.758;9.290;2023-04-03T05:23:43;3.60;1.00
429;DHT22;201;48.758;9.290;2023-04-03T05:26:09;3.60;1.00
429;DHT22;201;48.758;9.290;2023-04-03T05:28:35;3.80;1.00
429;DHT22;201;48.758;9.290;2023-04-03T05:31:01;3.90;1.00
429;DHT22;201;48.758;9.290;2023-04-03T05:33:27;4.20;1.00
429;DHT22;201;48.758;9.290;2023-04-03T05:35:53;4.60;1.00
429;DHT22;201;48.758;9.290;2023-04-03T05:38:19;4.60;1.00
429;DHT22;201;48.758;9.290;2023-04-03T05:40:45;4.50;1.00
429;DHT22;201;48.758;9.290;2023-04-03T05:43:11;4.50;1.00
429;DHT22;201;48.758;9.290;2023-04-03T05:45:37;4.50;1.00
429;DHT22;201;48.758;9.290;2023-04-03T05:48:02;4.60;1.00
429;DHT22;201;48.758;9.290;2023-04-03T05:50:28;4.80;1.00
429;DHT22;201;48.758;9.290;2023-04-03T05:52:56;4.80;1.00
429;DHT22;201;48.758;9.290;2023-04-03T05:55:23;4.90;1.00
429;DHT22;201;48.758;9.290;2023-04-03T05:57:49;4.90;1.00
429;DHT22;201;48.758;9.290;2023-04-03T06:00:15;4.60;1.00
429;DHT22;201;48.758;9.290;2023-04-03T06:02:41;4.80;1.00
429;DHT22;201;48.758;9.290;2023-04-03T06:05:08;4.80;1.00
429;DHT22;201;48.758;9.290;2023-04-03T06:07:35;5.30;1.00
429;DHT22;201;48.758;9.290;2023-04-03T06:10:00;5.70;1.00
429;DHT22;201;48.758;9.290;2023-04-03T06:12:27;5.60;1.00
429;DHT22;201;48.758;9.290;2023-04-03T06:14:55;5.30;1.00
429;DHT22;201;48.758;9.290;2023-04-03T06:17:21;5.10;1.00
429;DHT22;201;48.758;9.290;2023-04-03T06:19:47;5.20;1.00
429;DHT22;201;48.758;9.290;2023-04-03T06:22:12;5.10;1.00
429;DHT22;201;48.758;9.290;2023-04-03T06:24:38;4.90;1.00
429;DHT22;201;48.758;9.290;2023-04-03T06:27:04;4.70;1.00
429;DHT22;201;48.758;9.290;2023-04-03T06:29:29;4.50;1.00
429;DHT22;201;48.758;9.290;2023-04-03T06:31:55;4.60;1.00
429;DHT22;201;48.758;9.290;2023-04-03T06:34:21;4.60;1.00
429;DHT22;201;48.758;9.290;2023-04-03T06:36:46;4.60;1.00
429;DHT22;201;48.758;9.290;2023-04-03T06:39:17;4.60;1.00
429;DHT22;201;48.758;9.290;2023-04-03T06:41:43;4.60;1.00
429;DHT22;201;48.758;9.290;2023-04-03T06:44:09;4.50;1.00
429;DHT22;201;48.758;9.290;2023-04-03T06:46:37;4.30;1.00
429;DHT22;201;48.758;9.290;2023-04-03T06:49:04;4.30;1.00
429;DHT22;201;48.758;9.290;2023-04-03T06:51:30;4.30;1.00
429;DHT22;201;48.758;9.290;2023-04-03T06:53:57;4.20;1.00
429;DHT22;201;48.758;9.290;2023-04-03T06:56:23;4.20;1.00
429;DHT22;201;48.758;9.290;2023-04-03T06:58:49;4.20;1.00
429;DHT22;201;48.758;9.290;2023-04-03T07:01:17;4.20;1.00
429;DHT22;201;48.758;9.290;2023-04-03T07:03:45;4.30;1.00
429;DHT22;201;48.758;9.290;2023-04-03T07:06:12;4.40;1.00
429;DHT22;201;48.758;9.290;2023-04-03T07:08:39;4.60;1.00
429;DHT22;201;48.758;9.290;2023-04-03T07:11:05;4.70;1.00
429;DHT22;201;48.758;9.290;2023-04-03T07:13:31;4.70;1.00
429;DHT22;201;48.758;9.290;2023-04-03T07:15:56;4.70;1.00
429;DHT22;201;48.758;9.290;2023-04-03T07:18:23;4.70;1.00
429;DHT22;201;48.758;9.290;2023-04-03T07:20:48;4.80;1.00
429;DHT22;201;48.758;9.290;2023-04-03T07:23:14;5.00;1.00
429;DHT22;201;48.758;9.290;2023-04-03T07:25:44;5.20;1.00
429;DHT22;201;48.758;9.290;2023-04-03T07:28:11;5.30;1.00
429;DHT22;201;48.758;9.290;2023-04-03T07:30:46;5.30;1.00
429;DHT22;201;48.758;9.290;2023-04-03T07:33:12;5.40;1.00
429;DHT22;201;48.758;9.290;2023-04-03T07:35:39;5.30;1.00
429;DHT22;201;48.758;9.290;2023-04-03T07:38:05;5.30;1.00
429;DHT22;201;48.758;9.290;2023-04-03T07:40:31;5.40;1.00
429;DHT22;201;48.758;9.290;2023-04-03T07:42:57;5.30;1.00
429;DHT22;201;48.758;9.290;2023-04-03T07:45:24;5.50;1.00
429;DHT22;201;48.758;9.290;2023-04-03T07:47:50;5.60;1.00
429;DHT22;201;48.758;9.290;2023-04-03T07:50:16;5.80;1.00
429;DHT22;201;48.758;9.290;2023-04-03T07:52:41;6.00;1.00
429;DHT22;201;48.758;9.290;2023-04-03T07:55:07;6.20;1.00
429;DHT22;201;48.758;9.290;2023-04-03T07:57:33;6.40;1.00
429;DHT22;201;48.758;9.290;2023-04-03T07:59:59;6.40;1.00
429;DHT22;201;48.758;9.290;2023-04-03T08:02:24;6.40;1.00
429;DHT22;201;48.758;9.290;2023-04-03T08:04:50;6.90;1.00
429;DHT22;201;48.758;9.290;2023-04-03T08:07:16;7.20;1.00
429;DHT22;201;48.758;9.290;2023-04-03T08:09:41;6.90;1.00
429;DHT22;201;48.758;9.290;2023-04-03T08:12:07;7.10;1.00
429;DHT22;201;48.758;9.290;2023-04-03T08:14:32;7.20;1.00
429;DHT22;201;48.758;9.290;2023-04-03T08:17:00;6.90;1.00
429;DHT22;201;48.758;9.290;2023-04-03T08:19:26;6.70;1.00
429;DHT22;201;48.758;9.290;2023-04-03T08:21:53;6.70;1.00
429;DHT22;201;48.758;9.290;2023-04-03T08:24:19;6.60;1.00
429;DHT22;201;48.758;9.290;2023-04-03T08:26:45;6.60;1.00
429;DHT22;201;48.758;9.290;2023-04-03T08:29:10;6.70;1.00
429;DHT22;201;48.758;9.290;2023-04-03T08:31:36;6.60;1.00
429;DHT22;201;48.758;9.290;2023-04-03T08:34:02;6.60;1.00
429;DHT22;201;48.758;9.290;2023-04-03T08:36:29;6.50;1.00
429;DHT22;201;48.758;9.290;2023-04-03T08:38:55;6.60;1.00
429;DHT22;201;48.758;9.290;2023-04-03T08:41:35;6.70;1.00
429;DHT22;201;48.758;9.290;2023-04-03T08:49:42;7.20;1.00
429;DHT22;201;48.758;9.290;2023-04-03T08:52:17;7.50;1.00
429;DHT22;201;48.758;9.290;2023-04-03T08:54:53;7.60;1.00
429;DHT22;201;48.758;9.290;2023-04-03T08:57:33;7.30;1.00
429;DHT22;201;48.758;9.290;2023-04-03T09:00:01;7.20;1.00
429;DHT22;201;48.758;9.290;2023-04-03T09:02:35;7.40;1.00
429;DHT22;201;48.758;9.290;2023-04-03T09:05:17;7.70;1.00
429;DHT22;201;48.758;9.290;2023-04-03T09:07:53;8.10;1.00
429;DHT22;201;48.758;9.290;2023-04-03T09:10:26;8.10;1.00
429;DHT22;201;48.758;9.290;2023-04-03T09:13:04;8.10;1.00
429;DHT22;201;48.758;9.290;2023-04-03T09:15:32;7.90;1.00
429;DHT22;201;48.758;9.290;2023-04-03T09:26:05;6.80;1.00
429;DHT22;201;48.758;9.290;2023-04-03T09:28:35;6.80;1.00
429;DHT22;201;48.758;9.290;2023-04-03T09:31:15;7.00;1.00
429;DHT22;201;48.758;9.290;2023-04-03T09:33:41;7.60;1.00
429;DHT22;201;48.758;9.290;2023-04-03T09:36:07;7.90;1.00
429;DHT22;201;48.758;9.290;2023-04-03T09:38:33;7.90;1.00
429;DHT22;201;48.758;9.290;2023-04-03T09:41:06;7.80;1.00
429;DHT22;201;48.758;9.290;2023-04-03T09:43:34;7.50;1.00
429;DHT22;201;48.758;9.290;2023-04-03T09:46:25;7.30;1.00
429;DHT22;201;48.758;9.290;2023-04-03T09:49:02;7.30;1.00
429;DHT22;201;48.758;9.290;2023-04-03T09:51:29;7.40;1.00
429;DHT22;201;48.758;9.290;2023-04-03T09:53:56;7.70;1.00
429;DHT22;201;48.758;9.290;2023-04-03T09:56:29;7.40;1.00
429;DHT22;201;48.758;9.290;2023-04-03T10:01:36;7.00;1.00
429;DHT22;201;48.758;9.290;2023-04-03T10:04:15;6.80;1.00
429;DHT22;201;48.758;9.290;2023-04-03T10:06:53;6.60;1.00
429;DHT22;201;48.758;9.290;2023-04-03T10:09:26;6.50;1.00
429;DHT22;201;48.758;9.290;2023-04-03T10:12:03;6.40;1.00
429;DHT22;201;48.758;9.290;2023-04-03T10:14:31;6.40;1.00
429;DHT22;201;48.758;9.290;2023-04-03T10:22:59;6.80;1.00
429;DHT22;201;48.758;9.290;2023-04-03T10:33:36;6.50;1.00
429;DHT22;201;48.758;9.290;2023-04-03T10:39:12;6.50;1.00
429;DHT22;201;48.758;9.290;2023-04-03T10:44:40;6.60;1.00
429;DHT22;201;48.758;9.290;2023-04-03T10:47:19;6.60;1.00
429;DHT22;201;48.758;9.290;2023-04-03T10:52:49;6.40;1.00
429;DHT22;201;48.758;9.290;2023-04-03T10:57:59;6.20;1.00
429;DHT22;201;48.758;9.290;2023-04-03T11:00:39;6.00;1.00
429;DHT22;201;48.758;9.290;2023-04-03T11:03:56;6.30;1.00
429;DHT22;201;48.758;9.290;2023-04-03T11:05:59;6.60;1.00
429;DHT22;201;48.758;9.290;2023-04-03T11:08:38;6.60;1.00
429;DHT22;201;48.758;9.290;2023-04-03T11:11:20;6.60;1.00
429;DHT22;201;48.758;9.290;2023-04-03T11:13:55;6.30;1.00
429;DHT22;201;48.758;9.290;2023-04-03T11:16:25;6.30;1.00
429;DHT22;201;48.758;9.290;2023-04-03T11:19:18;6.40;1.00
429;DHT22;201;48.758;9.290;2023-04-03T11:24:29;6.40;1.00
429;DHT22;201;48.758;9.290;2023-04-03T11:26:56;6.30;1.00
429;DHT22;201;48.758;9.290;2023-04-03T11:29:29;6.40;1.00
429;DHT22;201;48.758;9.290;2023-04-03T11:32:13;6.50;1.00
429;DHT22;201;48.758;9.290;2023-04-03T11:34:42;6.60;1.00
429;DHT22;201;48.758;9.290;2023-04-03T11:37:33;7.00;1.00
429;DHT22;201;48.758;9.290;2023-04-03T11:40:26;7.20;1.00
429;DHT22;201;48.758;9.290;2023-04-03T11:43:03;7.30;1.00
429;DHT22;201;48.758;9.290;2023-04-03T11:56:02;6.90;1.00
429;DHT22;201;48.758;9.290;2023-04-03T11:58:33;6.90;1.00
429;DHT22;201;48.758;9.290;2023-04-03T12:01:03;6.80;1.00
429;DHT22;201;48.758;9.290;2023-04-03T12:03:30;6.90;1.00
429;DHT22;201;48.758;9.290;2023-04-03T12:16:33;7.20;1.00
429;DHT22;201;48.758;9.290;2023-04-03T12:19:38;7.30;1.00
429;DHT22;201;48.758;9.290;2023-04-03T12:22:17;7.20;1.00
429;DHT22;201;48.758;9.290;2023-04-03T12:24:47;7.20;1.00
429;DHT22;201;48.758;9.290;2023-04-03T12:27:33;7.20;1.00
429;DHT22;201;48.758;9.290;2023-04-03T12:30:24;7.10;1.00
429;DHT22;201;48.758;9.290;2023-04-03T12:33:02;7.00;1.00
429;DHT22;201;48.758;9.290;2023-04-03T12:36:04;7.20;1.00
429;DHT22;201;48.758;9.290;2023-04-03T12:38:58;7.30;1.00
429;DHT22;201;48.758;9.290;2023-04-03T12:41:55;7.30;1.00
429;DHT22;201;48.758;9.290;2023-04-03T12:44:30;7.40;1.00
429;DHT22;201;48.758;9.290;2023-04-03T12:47:00;7.70;1.00
429;DHT22;201;48.758;9.290;2023-04-03T12:49:40;8.00;1.00
429;DHT22;201;48.758;9.290;2023-04-03T12:52:38;8.10;1.00
429;DHT22;201;48.758;9.290;2023-04-03T12:55:16;8.30;1.00
429;DHT22;201;48.758;9.290;2023-04-03T12:57:41;8.50;1.00
429;DHT22;201;48.758;9.290;2023-04-03T13:02:51;8.80;1.00
429;DHT22;201;48.758;9.290;2023-04-03T13:05:18;9.00;1.00
429;DHT22;201;48.758;9.290;2023-04-03T13:07:49;8.80;1.00
429;DHT22;201;48.758;9.290;2023-04-03T13:10:18;8.80;1.00
429;DHT22;201;48.758;9.290;2023-04-03T13:12:50;8.90;1.00
429;DHT22;201;48.758;9.290;2023-04-03T13:15:23;9.00;1.00
429;DHT22;201;48.758;9.290;2023-04-03T13:17:50;8.90;1.00
429;DHT22;201;48.758;9.290;2023-04-03T13:20:27;8.70;1.00
429;DHT22;201;48.758;9.290;2023-04-03T13:23:10;8.50;1.00
429;DHT22;201;48.758;9.290;2023-04-03T13:25:41;8.30;1.00
429;DHT22;201;48.758;9.290;2023-04-03T13:28:12;8.10;1.00
429;DHT22;201;48.758;9.290;2023-04-03T13:30:40;8.10;1.00
429;DHT22;201;48.758;9.290;2023-04-03T13:33:20;8.10;1.00
429;DHT22;201;48.758;9.290;2023-04-03T13:35:47;8.30;1.00
429;DHT22;201;48.758;9.290;2023-04-03T13:40:51;8.30;1.00
429;DHT22;201;48.758;9.290;2023-04-03T13:43:25;8.30;1.00
429;DHT22;201;48.758;9.290;2023-04-03T13:45:57;8.30;1.00
429;DHT22;201;48.758;9.290;2023-04-03T13:48:23;8.20;1.00
429;DHT22;201;48.758;9.290;2023-04-03T13:50:54;8.30;1.00
429;DHT22;201;48.758;9.290;2023-04-03T13:53:21;8.40;1.00
429;DHT22;201;48.758;9.290;2023-04-03T13:55:58;8.40;1.00
429;DHT22;201;48.758;9.290;2023-04-03T13:58:27;8.50;1.00
429;DHT22;201;48.758;9.290;2023-04-03T14:00:59;8.30;1.00
429;DHT22;201;48.758;9.290;2023-04-03T14:06:06;8.00;1.00
429;DHT22;201;48.758;9.290;2023-04-03T14:08:32;7.60;1.00
429;DHT22;201;48.758;9.290;2023-04-03T14:10:58;7.60;1.00
429;DHT22;201;48.758;9.290;2023-04-03T14:13:23;7.40;1.00
429;DHT22;201;48.758;9.290;2023-04-03T14:15:49;7.30;1.00
429;DHT22;201;48.758;9.290;2023-04-03T14:18:18;7.30;1.00
429;DHT22;201;48.758;9.290;2023-04-03T14:20:44;7.30;1.00
429;DHT22;201;48.758;9.290;2023-04-03T14:23:10;7.30;1.00
429;DHT22;201;48.758;9.290;2023-04-03T14:25:37;7.40;1.00
429;DHT22;201;48.758;9.290;2023-04-03T14:28:32;7.90;1.00
429;DHT22;201;48.758;9.290;2023-04-03T14:30:58;8.60;1.00
429;DHT22;201;48.758;9.290;2023-04-03T14:33:24;8.70;1.00
429;DHT22;201;48.758;9.290;2023-04-03T14:35:52;8.30;1.00
429;DHT22;201;48.758;9.290;2023-04-03T14:38:27;8.30;1.00
429;DHT22;201;48.758;9.290;2023-04-03T14:40:54;8.30;1.00
429;DHT22;201;48.758;9.290;2023-04-03T14:43:20;8.20;1.00
429;DHT22;201;48.758;9.290;2023-04-03T14:45:47;7.90;1.00
429;DHT22;201;48.758;9.290;2023-04-03T14:48:21;7.90;1.00
429;DHT22;201;48.758;9.290;2023-04-03T14:50:48;7.70;1.00
429;DHT22;201;48.758;9.290;2023-04-03T14:53:14;7.60;1.00
429;DHT22;201;48.758;9.290;2023-04-03T14:55:49;7.60;1.00
429;DHT22;201;48.758;9.290;2023-04-03T14:58:17;7.60;1.00
429;DHT22;201;48.758;9.290;2023-04-03T15:00:43;7.40;1.00
429;DHT22;201;48.758;9.290;2023-04-03T15:03:20;7.40;1.00
429;DHT22;201;48.758;9.290;2023-04-03T15:05:48;7.50;1.00
429;DHT22;201;48.758;9.290;2023-04-03T15:08:25;7.40;1.00
429;DHT22;201;48.758;9.290;2023-04-03T15:10:51;7.50;1.00
429;DHT22;201;48.758;9.290;2023-04-03T15:13:22;7.60;1.00
429;DHT22;201;48.758;9.290;2023-04-03T15:15:49;7.60;1.00
429;DHT22;201;48.758;9.290;2023-04-03T15:18:21;7.60;1.00
429;DHT22;201;48.758;9.290;2023-04-03T15:20:48;7.40;1.00
429;DHT22;201;48.758;9.290;2023-04-03T15:23:15;7.10;1.00
429;DHT22;201;48.758;9.290;2023-04-03T15:25:45;6.80;1.00
429;DHT22;201;48.758;9.290;2023-04-03T15:30:46;6.30;1.00
429;DHT22;201;48.758;9.290;2023-04-03T15:33:12;6.30;1.00
429;DHT22;201;48.758;9.290;2023-04-03T15:35:38;6.40;1.00
429;DHT22;201;48.758;9.290;2023-04-03T15:38:03;6.60;1.00
429;DHT22;201;48.758;9.290;2023-04-03T15:40:29;6.60;1.00
429;DHT22;201;48.758;9.290;2023-04-03T15:42:55;6.70;1.00
429;DHT22;201;48.758;9.290;2023-04-03T15:45:21;6.50;1.00
429;DHT22;201;48.758;9.290;2023-04-03T15:47:47;6.50;1.00
429;DHT22;201;48.758;9.290;2023-04-03T15:50:12;6.70;1.00
429;DHT22;201;48.758;9.290;2023-04-03T15:52:38;6.90;1.00
429;DHT22;201;48.758;9.290;2023-04-03T15:55:04;7.20;1.00
429;DHT22;201;48.758;9.290;2023-04-03T15:57:30;7.30;1.00
429;DHT22;201;48.758;9.290;2023-04-03T15:59:55;7.40;1.00
429;DHT22;201;48.758;9.290;2023-04-03T16:02:21;7.50;1.00
429;DHT22;201;48.758;9.290;2023-04-03T16:04:48;7.70;1.00
429;DHT22;201;48.758;9.290;2023-04-03T16:07:13;7.60;1.00
429;DHT22;201;48.758;9.290;2023-04-03T16:09:39;7.50;1.00
429;DHT22;201;48.758;9.290;2023-04-03T16:12:05;7.10;1.00
429;DHT22;201;48.758;9.290;2023-04-03T16:14:31;6.80;1.00
429;DHT22;201;48.758;9.290;2023-04-03T16:16:57;6.50;1.00
429;DHT22;201;48.758;9.290;2023-04-03T16:19:23;6.40;1.00
429;DHT22;201;48.758;9.290;2023-04-03T16:21:49;6.50;1.00
429;DHT22;201;48.758;9.290;2023-04-03T16:24:14;6.60;1.00
429;DHT22;201;48.758;9.290;2023-04-03T16:26:40;6.70;1.00
429;DHT22;201;48.758;9.290;2023-04-03T16:29:06;6.80;1.00
429;DHT22;201;48.758;9.290;2023-04-03T16:31:32;6.80;1.00
429;DHT22;201;48.758;9.290;2023-04-03T16:33:58;6.50;1.00
429;DHT22;201;48.758;9.290;2023-04-03T16:36:25;6.40;1.00
429;DHT22;201;48.758;9.290;2023-04-03T16:38:51;6.40;1.00
429;DHT22;201;48.758;9.290;2023-04-03T16:41:16;6.40;1.00
429;DHT22;201;48.758;9.290;2023-04-03T16:43:42;6.30;1.00
429;DHT22;201;48.758;9.290;2023-04-03T16:46:08;6.30;1.00
429;DHT22;201;48.758;9.290;2023-04-03T16:48:34;6.50;1.00
429;DHT22;201;48.758;9.290;2023-04-03T16:51:00;6.60;1.00
429;DHT22;201;48.758;9.290;2023-04-03T16:53:26;6.60;1.00
429;DHT22;201;48.758;9.290;2023-04-03T16:55:52;6.50;1.00
429;DHT22;201;48.758;9.290;2023-04-03T16:58:18;6.50;1.00
429;DHT22;201;48.758;9.290;2023-04-03T17:00:44;6.40;1.00
429;DHT22;201;48.758;9.290;2023-04-03T17:03:10;6.40;1.00
429;DHT22;201;48.758;9.290;2023-04-03T17:05:35;6.30;1.00
429;DHT22;201;48.758;9.290;2023-04-03T17:08:01;6.30;1.00
429;DHT22;201;48.758;9.290;2023-04-03T17:10:27;6.20;1.00
429;DHT22;201;48.758;9.290;2023-04-03T17:12:53;6.20;1.00
429;DHT22;201;48.758;9.290;2023-04-03T17:15:19;6.10;1.00
429;DHT22;201;48.758;9.290;2023-04-03T17:17:46;6.10;1.00
429;DHT22;201;48.758;9.290;2023-04-03T17:20:12;6.00;1.00
429;DHT22;201;48.758;9.290;2023-04-03T17:22:37;6.00;1.00
429;DHT22;201;48.758;9.290;2023-04-03T17:25:03;5.90;1.00
429;DHT22;201;48.758;9.290;2023-04-03T17:27:29;5.80;1.00
429;DHT22;201;48.758;9.290;2023-04-03T17:29:55;5.80;1.00
429;DHT22;201;48.758;9.290;2023-04-03T17:32:20;5.90;1.00
429;DHT22;201;48.758;9.290;2023-04-03T17:34:46;5.80;1.00
429;DHT22;201;48.758;9.290;2023-04-03T17:37:12;5.80;1.00
429;DHT22;201;48.758;9.290;2023-04-03T17:39:38;5.90;1.00
429;DHT22;201;48.758;9.290;2023-04-03T17:42:03;5.80;1.00
429;DHT22;201;48.758;9.290;2023-04-03T17:44:29;5.80;1.00
429;DHT22;201;48.758;9.290;2023-04-03T17:46:55;5.70;1.00
429;DHT22;201;48.758;9.290;2023-04-03T17:49:20;5.60;1.00
429;DHT22;201;48.758;9.290;2023-04-03T17:51:47;5.60;1.00
429;DHT22;201;48.758;9.290;2023-04-03T17:54:13;5.50;1.00
429;DHT22;201;48.758;9.290;2023-04-03T17:56:38;5.40;1.00
429;DHT22;201;48.758;9.290;2023-04-03T17:59:04;5.40;1.00
429;DHT22;201;48.758;9.290;2023-04-03T18:01:32;5.30;1.00
429;DHT22;201;48.758;9.290;2023-04-03T18:04:00;5.20;1.00
429;DHT22;201;48.758;9.290;2023-04-03T18:06:50;5.10;1.00
429;DHT22;201;48.758;9.290;2023-04-03T18:09:24;5.00;1.00
429;DHT22;201;48.758;9.290;2023-04-03T18:11:51;5.00;1.00
429;DHT22;201;48.758;9.290;2023-04-03T18:14:20;5.00;1.00
429;DHT22;201;48.758;9.290;2023-04-03T18:16:47;5.00;1.00
429;DHT22;201;48.758;9.290;2023-04-03T18:19:13;5.10;1.00
429;DHT22;201;48.758;9.290;2023-04-03T18:21:38;5.10;1.00
429;DHT22;201;48.758;9.290;2023-04-03T18:24:11;5.10;1.00
429;DHT22;201;48.758;9.290;2023-04-03T18:26:37;5.10;1.00
429;DHT22;201;48.758;9.290;2023-04-03T18:29:05;5.20;1.00
429;DHT22;201;48.758;9.290;2023-04-03T18:31:34;5.10;1.00
429;DHT22;201;48.758;9.290;2023-04-03T18:34:00;5.00;1.00
429;DHT22;201;48.758;9.290;2023-04-03T18:36:27;4.90;1.00
429;DHT22;201;48.758;9.290;2023-04-03T18:38:53;4.80;1.00
429;DHT22;201;48.758;9.290;2023-04-03T18:41:21;4.80;1.00